createdAt,value
2022-12-09T00:00:45.777Z,33.15
2022-12-09T00:01:45.774Z,33.15
2022-12-09T00:02:46.148Z,33.15
2022-12-09T00:03:46.095Z,33.15
2022-12-09T00:04:45.935Z,33.04
2022-12-09T00:05:45.979Z,32.93
2022-12-09T00:06:45.714Z,33.04
2022-12-09T00:07:45.922Z,32.95
2022-12-09T00:08:45.925Z,33.04
2022-12-09T00:09:45.884Z,32.95
2022-12-09T00:10:45.703Z,33.04
2022-12-09T00:11:45.780Z,33.15
2022-12-09T00:12:45.667Z,33.04
2022-12-09T00:13:45.864Z,33.04
2022-12-09T00:14:45.661Z,32.93
2022-12-09T00:15:46.008Z,32.95
2022-12-09T00:16:46.005Z,33.04
2022-12-09T00:17:45.715Z,33.15
2022-12-09T00:18:45.854Z,32.95
2022-12-09T00:19:45.827Z,32.95
2022-12-09T00:20:45.559Z,32.95
2022-12-09T00:21:45.778Z,32.95
2022-12-09T00:22:45.571Z,32.95
2022-12-09T00:23:45.535Z,32.95
2022-12-09T00:24:45.544Z,32.95
2022-12-09T00:25:45.533Z,32.95
2022-12-09T00:26:45.691Z,32.95
2022-12-09T00:27:45.781Z,32.95
2022-12-09T00:28:45.490Z,33.04
2022-12-09T00:29:45.558Z,33.04
2022-12-09T00:30:45.720Z,32.95
2022-12-09T00:31:45.836Z,32.95
2022-12-09T00:32:45.584Z,32.95
2022-12-09T00:33:45.574Z,32.84
2022-12-09T00:34:45.422Z,33.04
2022-12-09T00:35:45.460Z,32.95
2022-12-09T00:36:45.537Z,32.95
2022-12-09T00:37:45.431Z,32.95
2022-12-09T00:38:45.384Z,32.95
2022-12-09T00:39:45.526Z,32.95
2022-12-09T00:40:45.417Z,32.95
2022-12-09T00:41:45.378Z,33.04
2022-12-09T00:42:45.341Z,32.95
2022-12-09T00:43:45.392Z,32.95
2022-12-09T00:44:45.313Z,33.04
2022-12-09T00:45:45.408Z,32.95
2022-12-09T00:46:45.404Z,32.95
2022-12-09T00:47:45.415Z,32.84
2022-12-09T00:48:45.493Z,32.95
2022-12-09T00:49:45.317Z,32.84
2022-12-09T00:50:46.307Z,32.84
2022-12-09T00:51:45.528Z,32.84
2022-12-09T00:52:45.229Z,32.95
2022-12-09T00:53:45.367Z,32.95
2022-12-09T00:54:45.256Z,32.84
2022-12-09T00:55:45.416Z,32.84
2022-12-09T00:56:45.276Z,32.84
2022-12-09T00:57:45.223Z,32.84
2022-12-09T00:58:45.277Z,32.95
2022-12-09T00:59:45.170Z,32.95
2022-12-09T01:00:45.172Z,32.84
2022-12-09T01:01:45.274Z,32.95
2022-12-09T01:02:45.316Z,32.95
2022-12-09T01:03:45.424Z,32.84
2022-12-09T01:04:45.414Z,32.84
2022-12-09T01:05:45.346Z,32.84
2022-12-09T01:06:45.109Z,32.95
2022-12-09T01:07:45.391Z,32.95
2022-12-09T01:08:45.950Z,32.84
2022-12-09T01:09:45.204Z,32.95
2022-12-09T01:10:45.287Z,32.95
2022-12-09T01:11:45.040Z,32.75
2022-12-09T01:12:45.033Z,32.84
2022-12-09T01:13:45.186Z,32.95
2022-12-09T01:14:45.066Z,32.95
2022-12-09T01:15:45.407Z,32.95
2022-12-09T01:16:45.090Z,32.84
2022-12-09T01:17:45.065Z,32.84
2022-12-09T01:18:45.073Z,32.84
2022-12-09T01:19:45.110Z,32.84
2022-12-09T01:20:44.993Z,32.84
2022-12-09T01:21:44.985Z,32.84
2022-12-09T01:22:44.924Z,32.84
2022-12-09T01:23:44.913Z,32.75
2022-12-09T01:24:44.896Z,32.84
2022-12-09T01:25:44.930Z,32.84
2022-12-09T01:26:45.091Z,32.84
2022-12-09T01:27:44.950Z,32.95
2022-12-09T01:28:45.014Z,32.84
2022-12-09T01:29:44.968Z,32.75
2022-12-09T01:30:44.882Z,32.84
2022-12-09T01:31:45.185Z,32.75
2022-12-09T01:32:44.972Z,32.84
2022-12-09T01:33:44.873Z,32.84
2022-12-09T01:34:45.101Z,32.84
2022-12-09T01:35:44.834Z,32.84
2022-12-09T01:36:44.786Z,32.84
2022-12-09T01:37:44.979Z,32.95
2022-12-09T01:38:44.822Z,32.84
2022-12-09T01:39:45.126Z,32.84
2022-12-09T01:40:44.851Z,32.84
2022-12-09T01:41:44.724Z,32.84
2022-12-09T01:42:44.970Z,32.84
2022-12-09T01:43:44.772Z,32.95
2022-12-09T01:44:45.015Z,32.84
2022-12-09T01:45:44.933Z,32.95
2022-12-09T01:46:44.864Z,32.96
2022-12-09T01:47:44.794Z,32.95
2022-12-09T01:48:44.792Z,32.95
2022-12-09T01:49:44.666Z,32.95
2022-12-09T01:50:45.822Z,32.95
2022-12-09T01:51:44.749Z,32.84
2022-12-09T01:52:44.766Z,32.95
2022-12-09T01:53:44.643Z,32.84
2022-12-09T01:54:44.764Z,32.86
2022-12-09T01:55:44.644Z,32.84
2022-12-09T01:56:44.573Z,32.84
2022-12-09T01:57:45.072Z,32.84
2022-12-09T01:58:44.765Z,32.84
2022-12-09T01:59:44.805Z,32.84
2022-12-09T02:00:44.634Z,32.84
2022-12-09T02:01:44.597Z,32.84
2022-12-09T02:02:44.731Z,32.75
2022-12-09T02:03:44.854Z,32.75
2022-12-09T02:04:44.621Z,32.75
2022-12-09T02:05:44.568Z,32.84
2022-12-09T02:06:44.568Z,32.64
2022-12-09T02:07:44.614Z,32.75
2022-12-09T02:08:44.754Z,32.64
2022-12-09T02:09:44.544Z,32.75
2022-12-09T02:10:44.618Z,32.64
2022-12-09T02:11:44.709Z,32.54
2022-12-09T02:12:44.408Z,32.64
2022-12-09T02:13:44.485Z,32.54
2022-12-09T02:14:44.746Z,32.64
2022-12-09T02:15:44.785Z,32.64
2022-12-09T02:16:44.445Z,32.75
2022-12-09T02:17:44.560Z,32.54
2022-12-09T02:18:44.446Z,32.54
2022-12-09T02:19:44.513Z,32.54
2022-12-09T02:20:44.321Z,32.54
2022-12-09T02:21:44.658Z,32.54
2022-12-09T02:22:44.626Z,32.54
2022-12-09T02:23:44.295Z,32.54
2022-12-09T02:24:44.443Z,32.54
2022-12-09T02:25:44.585Z,32.54
2022-12-09T02:26:44.604Z,32.44
2022-12-09T02:27:44.556Z,32.44
2022-12-09T02:28:44.238Z,32.44
2022-12-09T02:29:44.240Z,32.54
2022-12-09T02:30:44.242Z,32.44
2022-12-09T02:31:44.589Z,32.44
2022-12-09T02:32:44.617Z,32.44
2022-12-09T02:33:44.390Z,32.44
2022-12-09T02:34:44.310Z,32.44
2022-12-09T02:35:44.504Z,32.34
2022-12-09T02:36:44.202Z,32.44
2022-12-09T02:37:44.205Z,32.43
2022-12-09T02:38:44.449Z,32.44
2022-12-09T02:39:44.589Z,32.34
2022-12-09T02:40:44.125Z,32.32
2022-12-09T02:41:44.123Z,32.24
2022-12-09T02:42:44.234Z,32.24
2022-12-09T02:43:49.606Z,32.34
2022-12-09T02:44:44.095Z,32.44
2022-12-09T02:45:44.231Z,32.44
2022-12-09T02:46:44.296Z,32.32
2022-12-09T02:47:44.190Z,32.24
2022-12-09T02:48:44.485Z,32.34
2022-12-09T02:49:44.274Z,32.34
2022-12-09T02:50:44.016Z,32.34
2022-12-09T02:51:44.264Z,32.34
2022-12-09T02:52:43.997Z,32.34
2022-12-09T02:53:43.983Z,32.34
2022-12-09T02:54:43.965Z,32.34
2022-12-09T02:55:44.085Z,32.34
2022-12-09T02:56:44.044Z,32.44
2022-12-09T02:57:44.154Z,32.34
2022-12-09T02:58:43.966Z,32.34
2022-12-09T02:59:44.201Z,32.34
2022-12-09T03:00:44.190Z,32.34
2022-12-09T03:01:44.066Z,32.34
2022-12-09T03:02:44.046Z,32.34
2022-12-09T03:03:44.477Z,32.34
2022-12-09T03:04:44.333Z,32.44
2022-12-09T03:05:44.206Z,32.34
2022-12-09T03:06:44.994Z,32.34
2022-12-09T03:07:44.034Z,32.24
2022-12-09T03:08:44.042Z,32.44
2022-12-09T03:09:44.083Z,32.34
2022-12-09T03:10:44.075Z,32.34
2022-12-09T03:11:43.856Z,32.24
2022-12-09T03:12:43.907Z,32.34
2022-12-09T03:13:43.867Z,32.34
2022-12-09T03:14:43.852Z,32.34
2022-12-09T03:15:44.128Z,32.34
2022-12-09T03:16:44.104Z,32.34
2022-12-09T03:17:43.821Z,32.34
2022-12-09T03:18:44.037Z,32.44
2022-12-09T03:19:43.795Z,32.34
2022-12-09T03:20:44.053Z,32.34
2022-12-09T03:21:44.123Z,32.44
2022-12-09T03:22:43.990Z,32.34
2022-12-09T03:23:43.842Z,32.34
2022-12-09T03:24:43.666Z,32.34
2022-12-09T03:25:43.721Z,32.34
2022-12-09T03:26:43.728Z,32.24
2022-12-09T03:27:43.706Z,32.24
2022-12-09T03:28:43.663Z,32.34
2022-12-09T03:29:43.924Z,32.34
2022-12-09T03:30:43.951Z,32.34
2022-12-09T03:31:43.683Z,32.34
2022-12-09T03:32:43.701Z,32.34
2022-12-09T03:33:43.875Z,32.34
2022-12-09T03:34:43.735Z,32.34
2022-12-09T03:35:43.562Z,32.44
2022-12-09T03:36:43.797Z,32.34
2022-12-09T03:37:43.536Z,32.34
2022-12-09T03:38:43.896Z,32.34
2022-12-09T03:39:43.826Z,32.34
2022-12-09T03:40:43.532Z,32.44
2022-12-09T03:41:43.491Z,32.34
2022-12-09T03:42:43.647Z,32.34
2022-12-09T03:43:43.469Z,32.34
2022-12-09T03:44:43.833Z,32.44
2022-12-09T03:45:43.824Z,32.34
2022-12-09T03:46:43.559Z,32.34
2022-12-09T03:47:43.789Z,32.34
2022-12-09T03:48:43.530Z,32.34
2022-12-09T03:49:43.532Z,32.34
2022-12-09T03:50:43.381Z,32.34
2022-12-09T03:51:43.405Z,32.34
2022-12-09T03:52:43.722Z,32.34
2022-12-09T03:53:43.688Z,32.34
2022-12-09T03:54:43.419Z,32.34
2022-12-09T03:55:43.347Z,32.34
2022-12-09T03:56:43.517Z,32.34
2022-12-09T03:57:43.326Z,32.34
2022-12-09T03:58:43.462Z,32.24
2022-12-09T03:59:43.295Z,32.24
2022-12-09T04:00:43.829Z,32.34
2022-12-09T04:01:43.697Z,32.24
2022-12-09T04:02:43.722Z,32.24
2022-12-09T04:03:43.499Z,32.24
2022-12-09T04:04:43.519Z,32.24
2022-12-09T04:05:43.436Z,32.14
2022-12-09T04:06:43.591Z,32.24
2022-12-09T04:07:43.425Z,32.24
2022-12-09T04:08:43.394Z,32.14
2022-12-09T04:09:43.854Z,32.14
2022-12-09T04:10:43.193Z,32.14
2022-12-09T04:11:43.171Z,32.14
2022-12-09T04:12:43.162Z,32.14
2022-12-09T04:13:43.156Z,32.14
2022-12-09T04:14:43.271Z,32.14
2022-12-09T04:15:43.181Z,32.14
2022-12-09T04:16:43.586Z,32.14
2022-12-09T04:17:43.251Z,32.04
2022-12-09T04:18:43.313Z,32.14
2022-12-09T04:19:43.291Z,32.14
2022-12-09T04:20:43.433Z,32.14
2022-12-09T04:21:43.412Z,32.14
2022-12-09T04:22:43.328Z,32.14
2022-12-09T04:23:43.688Z,32.04
2022-12-09T04:24:43.033Z,32.14
2022-12-09T04:25:43.256Z,32.04
2022-12-09T04:26:43.188Z,32.14
2022-12-09T04:27:43.051Z,32.14
2022-12-09T04:28:43.378Z,32.14
2022-12-09T04:29:42.992Z,32.04
2022-12-09T04:30:43.299Z,32.14
2022-12-09T04:31:43.126Z,32.04
2022-12-09T04:32:43.255Z,32.04
2022-12-09T04:33:43.426Z,32.04
2022-12-09T04:34:42.986Z,32.14
2022-12-09T04:35:43.125Z,32.14
2022-12-09T04:36:42.930Z,32.14
2022-12-09T04:37:43.264Z,32.04
2022-12-09T04:38:42.951Z,32.04
2022-12-09T04:39:42.908Z,32.14
2022-12-09T04:40:42.905Z,32.04
2022-12-09T04:41:42.855Z,32.04
2022-12-09T04:42:43.027Z,32.04
2022-12-09T04:43:43.229Z,32.14
2022-12-09T04:44:42.976Z,32.04
2022-12-09T04:45:43.072Z,32.14
2022-12-09T04:46:43.181Z,32.04
2022-12-09T04:47:42.939Z,32.04
2022-12-09T04:48:43.153Z,32.04
2022-12-09T04:49:42.852Z,31.93
2022-12-09T04:50:42.785Z,32.04
2022-12-09T04:51:42.950Z,32.04
2022-12-09T04:52:43.039Z,32.04
2022-12-09T04:53:42.739Z,32.04
2022-12-09T04:54:42.994Z,32.04
2022-12-09T04:55:42.830Z,32.14
2022-12-09T04:56:43.082Z,32.04
2022-12-09T04:57:43.034Z,32.04
2022-12-09T04:58:42.893Z,32.04
2022-12-09T04:59:42.778Z,32.04
2022-12-09T05:00:42.793Z,32.04
2022-12-09T05:01:42.937Z,32.04
2022-12-09T05:02:42.991Z,32.04
2022-12-09T05:03:42.953Z,32.14
2022-12-09T05:04:43.013Z,32.34
2022-12-09T05:05:42.707Z,32.24
2022-12-09T05:06:42.760Z,32.14
2022-12-09T05:07:43.102Z,32.24
2022-12-09T05:08:43.167Z,32.34
2022-12-09T05:09:43.033Z,32.24
2022-12-09T05:10:43.067Z,32.14
2022-12-09T05:11:42.692Z,32.24
2022-12-09T05:12:42.686Z,32.14
2022-12-09T05:13:42.580Z,32.04
2022-12-09T05:14:42.756Z,32.14
2022-12-09T05:15:42.931Z,32.24
2022-12-09T05:16:42.790Z,32.34
2022-12-09T05:17:42.935Z,32.34
2022-12-09T05:18:42.655Z,32.24
2022-12-09T05:19:42.622Z,32.44
2022-12-09T05:20:42.458Z,32.34
2022-12-09T05:21:42.821Z,32.44
2022-12-09T05:22:42.475Z,32.34
2022-12-09T05:23:42.536Z,32.34
2022-12-09T05:24:42.773Z,32.34
2022-12-09T05:25:42.787Z,32.44
2022-12-09T05:26:42.420Z,32.44
2022-12-09T05:27:42.413Z,32.44
2022-12-09T05:28:42.486Z,32.54
2022-12-09T05:29:42.542Z,32.54
2022-12-09T05:30:42.535Z,32.54
2022-12-09T05:31:42.577Z,32.64
2022-12-09T05:32:42.787Z,32.64
2022-12-09T05:33:42.559Z,32.64
2022-12-09T05:34:42.757Z,32.75
2022-12-09T05:35:51.978Z,32.75
2022-12-09T05:36:42.666Z,32.84
2022-12-09T05:37:42.347Z,32.84
2022-12-09T05:38:42.464Z,32.73
2022-12-09T05:39:42.484Z,32.83
2022-12-09T05:40:42.651Z,32.73
2022-12-09T05:41:42.833Z,32.73
2022-12-09T05:42:42.517Z,32.83
2022-12-09T05:43:42.315Z,33.03
2022-12-09T05:44:42.309Z,32.93
2022-12-09T05:45:42.677Z,32.93
2022-12-09T05:46:42.677Z,32.83
2022-12-09T05:47:42.557Z,32.83
2022-12-09T05:48:42.599Z,32.93
2022-12-09T05:49:42.377Z,32.93
2022-12-09T05:50:42.330Z,33.23
2022-12-09T05:51:42.588Z,33.13
2022-12-09T05:52:42.242Z,33.04
2022-12-09T05:53:42.191Z,33.15
2022-12-09T05:54:27.300Z,33.04
2022-12-09T05:55:28.321Z,33.15
2022-12-09T05:56:28.421Z,33.65
2022-12-09T05:57:28.234Z,34.16
2022-12-09T05:58:27.820Z,34.16
2022-12-09T05:59:28.133Z,34.24
2022-12-09T06:00:28.043Z,34.14
2022-12-09T06:01:27.910Z,34.44
2022-12-09T06:02:27.939Z,33.73
2022-12-09T06:03:28.347Z,33.64
2022-12-09T06:04:27.939Z,33.53
2022-12-09T06:05:28.281Z,33.44
2022-12-09T06:06:28.471Z,33.64
2022-12-09T06:07:27.980Z,33.64
2022-12-09T06:08:28.217Z,33.53
2022-12-09T06:09:28.029Z,33.95
2022-12-09T06:10:28.041Z,33.75
2022-12-09T06:11:28.029Z,33.75
2022-12-09T06:12:28.049Z,33.95
2022-12-09T06:13:28.066Z,33.75
2022-12-09T06:14:28.028Z,33.95
2022-12-09T06:15:33.223Z,33.85
2022-12-09T06:16:28.153Z,33.95
2022-12-09T06:17:27.822Z,33.85
2022-12-09T06:18:27.762Z,34.05
2022-12-09T06:19:27.727Z,34.05
2022-12-09T06:20:27.859Z,34.36
2022-12-09T06:21:28.004Z,34.56
2022-12-09T06:22:27.619Z,34.05
2022-12-09T06:23:27.706Z,34.45
2022-12-09T06:24:27.594Z,34.25
2022-12-09T06:25:27.897Z,34.25
2022-12-09T06:26:27.740Z,34.45
2022-12-09T06:27:27.708Z,35.06
2022-12-09T06:28:27.880Z,34.45
2022-12-09T06:29:27.601Z,34.25
2022-12-09T06:30:27.553Z,35.16
2022-12-09T06:31:27.617Z,34.66
2022-12-09T06:32:27.937Z,35.36
2022-12-09T06:33:57.286Z,35.55
2022-12-09T06:34:27.642Z,34.94
2022-12-09T06:35:27.794Z,34.44
2022-12-09T06:36:27.997Z,34.44
2022-12-09T06:37:27.485Z,34.64
2022-12-09T06:38:27.802Z,34.94
2022-12-09T06:39:27.929Z,34.34
2022-12-09T06:40:27.816Z,34.54
2022-12-09T06:41:27.740Z,34.34
2022-12-09T06:42:27.758Z,33.94
2022-12-09T06:43:27.787Z,34.04
2022-12-09T06:44:28.022Z,34.34
2022-12-09T06:45:27.597Z,34.44
2022-12-09T06:46:27.976Z,34.04
2022-12-09T06:47:27.462Z,34.04
2022-12-09T06:48:27.396Z,34.04
2022-12-09T06:49:27.826Z,33.94
2022-12-09T06:50:27.438Z,33.94
2022-12-09T06:51:27.624Z,33.75
2022-12-09T06:52:28.195Z,33.95
2022-12-09T06:53:27.713Z,33.85
2022-12-09T06:54:27.830Z,33.84
2022-12-09T06:55:27.475Z,33.84
2022-12-09T06:56:27.668Z,33.95
2022-12-09T06:57:27.460Z,33.85
2022-12-09T06:58:27.298Z,33.85
2022-12-09T06:59:27.564Z,33.85
2022-12-09T07:00:27.528Z,33.75
2022-12-09T07:01:27.656Z,33.75
2022-12-09T07:02:30.236Z,33.75
2022-12-09T07:03:27.643Z,33.65
2022-12-09T07:04:27.485Z,33.64
2022-12-09T07:05:27.673Z,30.73
2022-12-09T07:06:27.619Z,31.03
2022-12-09T07:07:27.120Z,33.04
2022-12-09T07:08:27.267Z,32.14
2022-12-09T07:09:27.741Z,32.86
2022-12-09T07:10:27.173Z,33.56
2022-12-09T07:11:27.319Z,33.76
2022-12-09T07:12:27.292Z,33.76
2022-12-09T07:13:27.100Z,33.76
2022-12-09T07:14:27.494Z,33.76
2022-12-09T07:15:27.576Z,33.76
2022-12-09T07:16:27.593Z,33.87
2022-12-09T07:17:27.226Z,33.85
2022-12-09T07:18:27.525Z,33.75
2022-12-09T07:19:27.048Z,32.95
2022-12-09T07:20:27.443Z,32.26
2022-12-09T07:21:27.039Z,33.15
2022-12-09T07:22:27.175Z,33.45
2022-12-09T07:23:27.226Z,33.65
2022-12-09T07:24:27.243Z,33.65
2022-12-09T07:25:27.295Z,33.55
2022-12-09T07:26:26.908Z,33.55
2022-12-09T07:27:26.929Z,33.55
2022-12-09T07:28:26.994Z,33.55
2022-12-09T07:29:27.103Z,33.55
2022-12-09T07:30:27.037Z,33.55
2022-12-09T07:31:27.425Z,32.95
2022-12-09T07:32:27.284Z,30.94
2022-12-09T07:33:27.101Z,31.75
2022-12-09T07:34:27.352Z,32.56
2022-12-09T07:35:26.945Z,33.16
2022-12-09T07:36:27.960Z,33.36
2022-12-09T07:37:27.034Z,33.47
2022-12-09T07:38:27.050Z,33.47
2022-12-09T07:39:26.941Z,33.56
2022-12-09T07:40:27.169Z,33.47
2022-12-09T07:41:26.798Z,33.16
2022-12-09T07:42:26.942Z,33.47
2022-12-09T07:43:27.053Z,33.56
2022-12-09T07:44:26.833Z,33.47
2022-12-09T07:45:27.004Z,33.56
2022-12-09T07:46:26.786Z,33.56
2022-12-09T07:47:27.154Z,33.47
2022-12-09T07:48:26.936Z,33.47
2022-12-09T07:49:26.794Z,33.56
2022-12-09T07:50:26.823Z,33.56
2022-12-09T07:51:26.990Z,33.55
2022-12-09T07:52:27.036Z,33.55
2022-12-09T07:53:26.610Z,33.55
2022-12-09T07:54:26.586Z,33.55
2022-12-09T07:55:26.879Z,33.45
2022-12-09T07:56:26.873Z,33.35
2022-12-09T07:57:26.760Z,33.45
2022-12-09T07:58:26.970Z,33.45
2022-12-09T07:59:26.571Z,33.55
2022-12-09T08:00:26.664Z,33.55
2022-12-09T08:01:26.763Z,33.65
2022-12-09T08:02:26.963Z,33.55
2022-12-09T08:03:26.911Z,33.55
2022-12-09T08:04:26.624Z,33.55
2022-12-09T08:05:26.641Z,33.65
2022-12-09T08:06:27.254Z,33.65
2022-12-09T08:07:26.674Z,33.65
2022-12-09T08:08:26.831Z,33.65
2022-12-09T08:09:27.091Z,33.65
2022-12-09T08:10:27.069Z,33.65
2022-12-09T08:11:26.696Z,33.75
2022-12-09T08:12:26.692Z,33.65
2022-12-09T08:13:26.630Z,33.65
2022-12-09T08:14:26.483Z,33.65
2022-12-09T08:15:26.737Z,33.65
2022-12-09T08:16:26.637Z,33.75
2022-12-09T08:17:26.710Z,33.65
2022-12-09T08:18:26.672Z,33.65
2022-12-09T08:19:26.478Z,33.65
2022-12-09T08:20:29.311Z,33.65
2022-12-09T08:21:26.452Z,33.65
2022-12-09T08:22:26.713Z,33.65
2022-12-09T08:23:26.351Z,33.55
2022-12-09T08:24:26.715Z,33.55
2022-12-09T08:25:26.507Z,33.55
2022-12-09T08:26:26.412Z,33.55
2022-12-09T08:27:26.754Z,33.55
2022-12-09T08:28:26.368Z,33.45
2022-12-09T08:29:26.252Z,33.45
2022-12-09T08:30:26.483Z,33.45
2022-12-09T08:31:26.615Z,33.45
2022-12-09T08:32:26.440Z,33.35
2022-12-09T08:33:26.874Z,33.45
2022-12-09T08:34:26.236Z,33.35
2022-12-09T08:35:26.269Z,33.33
2022-12-09T08:36:26.414Z,33.33
2022-12-09T08:37:26.570Z,33.33
2022-12-09T08:38:26.344Z,33.23
2022-12-09T08:39:26.349Z,33.33
2022-12-09T08:40:26.292Z,33.33
2022-12-09T08:41:26.312Z,33.23
2022-12-09T08:42:26.134Z,33.23
2022-12-09T08:43:26.413Z,33.23
2022-12-09T08:44:26.091Z,33.23
2022-12-09T08:45:26.223Z,33.23
2022-12-09T08:46:26.412Z,33.13
2022-12-09T08:47:26.147Z,33.23
2022-12-09T08:48:26.503Z,33.13
2022-12-09T08:49:26.086Z,33.13
2022-12-09T08:50:26.439Z,33.13
2022-12-09T08:51:26.188Z,33.03
2022-12-09T08:52:26.128Z,33.01
2022-12-09T08:53:26.358Z,33.01
2022-12-09T08:54:26.270Z,32.91
2022-12-09T08:55:25.997Z,32.91
2022-12-09T08:56:26.255Z,32.91
2022-12-09T08:57:26.253Z,32.91
2022-12-09T08:58:25.922Z,32.91
2022-12-09T08:59:26.198Z,32.91
2022-12-09T09:00:26.052Z,32.91
2022-12-09T09:01:26.099Z,32.81
2022-12-09T09:02:26.388Z,32.81
2022-12-09T09:03:26.358Z,32.81
2022-12-09T09:04:26.201Z,32.81
2022-12-09T09:05:26.166Z,32.81
2022-12-09T09:06:26.125Z,32.81
2022-12-09T09:07:26.310Z,32.71
2022-12-09T09:08:26.061Z,32.71
2022-12-09T09:09:26.147Z,32.81
2022-12-09T09:10:26.009Z,32.81
2022-12-09T09:11:26.058Z,32.81
2022-12-09T09:12:26.116Z,32.81
2022-12-09T09:13:25.864Z,32.90
2022-12-09T09:14:25.800Z,32.81
2022-12-09T09:15:25.895Z,32.79
2022-12-09T09:16:25.853Z,32.90
2022-12-09T09:17:25.924Z,32.79
2022-12-09T09:18:26.029Z,32.79
2022-12-09T09:19:26.045Z,32.90
2022-12-09T09:20:25.910Z,32.90
2022-12-09T09:21:26.204Z,32.90
2022-12-09T09:22:26.073Z,32.90
2022-12-09T09:23:25.689Z,33.00
2022-12-09T09:24:26.023Z,33.00
2022-12-09T09:25:25.690Z,33.01
2022-12-09T09:26:26.139Z,33.10
2022-12-09T09:27:25.750Z,33.10
2022-12-09T09:28:30.631Z,33.10
2022-12-09T09:29:25.753Z,33.22
2022-12-09T09:30:26.060Z,33.20
2022-12-09T09:31:26.043Z,33.20
2022-12-09T09:32:25.749Z,33.22
2022-12-09T09:33:25.839Z,33.22
2022-12-09T09:34:26.136Z,33.31
2022-12-09T09:35:25.981Z,33.22
2022-12-09T09:36:25.801Z,33.31
2022-12-09T09:37:25.899Z,33.42
2022-12-09T09:38:25.736Z,33.31
2022-12-09T09:39:25.832Z,33.42
2022-12-09T09:40:25.996Z,33.42
2022-12-09T09:41:25.628Z,33.42
2022-12-09T09:42:25.472Z,33.42
2022-12-09T09:43:25.851Z,33.42
2022-12-09T09:44:25.633Z,33.51
2022-12-09T09:45:25.608Z,33.42
2022-12-09T09:46:25.763Z,33.42
2022-12-09T09:47:25.906Z,33.51
2022-12-09T09:48:25.460Z,33.51
2022-12-09T09:49:25.677Z,33.51
2022-12-09T09:50:25.607Z,33.51
2022-12-09T09:51:25.436Z,33.51
2022-12-09T09:52:25.438Z,33.62
2022-12-09T09:53:25.417Z,33.62
2022-12-09T09:54:25.533Z,33.62
2022-12-09T09:55:25.328Z,33.51
2022-12-09T09:56:25.512Z,33.51
2022-12-09T09:57:25.633Z,33.51
2022-12-09T09:58:25.512Z,33.62
2022-12-09T09:59:25.598Z,33.53
2022-12-09T10:00:26.516Z,33.64
2022-12-09T10:01:25.926Z,33.53
2022-12-09T10:02:26.018Z,33.53
2022-12-09T10:03:25.850Z,33.64
2022-12-09T10:04:25.616Z,33.64
2022-12-09T10:05:25.633Z,33.64
2022-12-09T10:06:25.870Z,33.64
2022-12-09T10:07:25.541Z,33.64
2022-12-09T10:08:25.894Z,33.73
2022-12-09T10:09:25.818Z,33.64
2022-12-09T10:10:25.916Z,33.73
2022-12-09T10:11:26.010Z,33.73
2022-12-09T10:12:25.717Z,33.73
2022-12-09T10:13:25.558Z,33.64
2022-12-09T10:14:25.486Z,33.73
2022-12-09T10:15:25.251Z,33.73
2022-12-09T10:16:25.349Z,33.73
2022-12-09T10:17:25.365Z,33.73
2022-12-09T10:18:25.257Z,33.73
2022-12-09T10:19:25.248Z,33.73
2022-12-09T10:20:25.602Z,33.73
2022-12-09T10:21:25.178Z,33.73
2022-12-09T10:22:25.676Z,33.73
2022-12-09T10:23:25.253Z,33.73
2022-12-09T10:24:25.225Z,33.73
2022-12-09T10:25:25.371Z,33.73
2022-12-09T10:26:25.587Z,33.73
2022-12-09T10:27:25.116Z,33.73
2022-12-09T10:28:25.394Z,33.73
2022-12-09T10:29:25.258Z,33.73
2022-12-09T10:30:28.232Z,33.64
2022-12-09T10:31:25.221Z,33.64
2022-12-09T10:32:25.557Z,33.64
2022-12-09T10:33:25.238Z,33.64
2022-12-09T10:34:25.127Z,33.73
2022-12-09T10:35:25.604Z,33.64
2022-12-09T10:36:29.292Z,33.73
2022-12-09T10:37:25.120Z,33.64
2022-12-09T10:38:24.945Z,33.64
2022-12-09T10:39:25.492Z,33.64
2022-12-09T10:40:25.026Z,33.64
2022-12-09T10:41:24.992Z,33.64
2022-12-09T10:42:28.328Z,33.64
2022-12-09T10:43:24.887Z,33.64
2022-12-09T10:44:25.340Z,33.64
2022-12-09T10:45:29.276Z,33.64
2022-12-09T10:46:25.557Z,33.64
2022-12-09T10:47:24.941Z,33.64
2022-12-09T10:48:29.587Z,33.64
2022-12-09T10:49:25.349Z,33.64
2022-12-09T10:50:25.431Z,33.53
2022-12-09T10:51:25.290Z,33.53
2022-12-09T10:52:24.990Z,33.53
2022-12-09T10:53:24.763Z,33.53
2022-12-09T10:54:25.050Z,33.53
2022-12-09T10:55:24.907Z,33.53
2022-12-09T10:56:25.118Z,33.53
2022-12-09T10:57:25.181Z,33.44
2022-12-09T10:58:24.957Z,33.44
2022-12-09T10:59:24.833Z,33.44
2022-12-09T11:00:27.127Z,33.44
2022-12-09T11:01:25.248Z,33.44
2022-12-09T11:02:24.802Z,33.44
2022-12-09T11:03:24.912Z,33.44
2022-12-09T11:04:25.184Z,33.44
2022-12-09T11:05:25.410Z,33.33
2022-12-09T11:06:25.000Z,30.21
2022-12-09T11:07:24.881Z,30.12
2022-12-09T11:08:25.081Z,31.33
2022-12-09T11:09:25.203Z,31.85
2022-12-09T11:10:25.481Z,32.96
2022-12-09T11:11:25.565Z,33.26
2022-12-09T11:12:24.945Z,33.35
2022-12-09T11:13:24.605Z,33.45
2022-12-09T11:14:24.809Z,33.35
2022-12-09T11:15:24.858Z,33.35
2022-12-09T11:16:24.626Z,33.35
2022-12-09T11:17:24.972Z,33.25
2022-12-09T11:18:24.749Z,33.25
2022-12-09T11:19:24.589Z,33.25
2022-12-09T11:20:24.713Z,33.13
2022-12-09T11:21:25.023Z,33.13
2022-12-09T11:22:25.027Z,33.13
2022-12-09T11:23:24.618Z,33.03
2022-12-09T11:24:24.898Z,33.03
2022-12-09T11:25:24.937Z,33.03
2022-12-09T11:26:24.573Z,32.93
2022-12-09T11:27:24.417Z,33.03
2022-12-09T11:28:24.586Z,32.93
2022-12-09T11:29:24.803Z,32.93
2022-12-09T11:30:25.114Z,32.93
2022-12-09T11:31:33.567Z,32.93
2022-12-09T11:32:24.568Z,32.93
2022-12-09T11:33:24.705Z,32.93
2022-12-09T11:34:24.535Z,32.93
2022-12-09T11:35:24.890Z,32.93
2022-12-09T11:36:25.593Z,32.93
2022-12-09T11:37:24.263Z,32.93
2022-12-09T11:38:24.260Z,32.93
2022-12-09T11:39:24.397Z,32.83
2022-12-09T11:40:24.233Z,32.83
2022-12-09T11:41:24.249Z,32.83
2022-12-09T11:42:24.225Z,32.93
2022-12-09T11:43:24.203Z,32.93
2022-12-09T11:44:24.203Z,32.93
2022-12-09T11:45:24.332Z,32.93
2022-12-09T11:46:24.237Z,32.93
2022-12-09T11:47:24.159Z,32.93
2022-12-09T11:48:31.987Z,32.93
2022-12-09T11:49:24.156Z,32.93
2022-12-09T11:50:24.273Z,32.93
2022-12-09T11:51:24.171Z,33.03
2022-12-09T11:52:24.123Z,33.03
2022-12-09T11:53:24.116Z,33.03
2022-12-09T11:54:24.085Z,33.03
2022-12-09T11:55:24.095Z,33.03
2022-12-09T11:56:24.102Z,33.03
2022-12-09T11:57:24.076Z,33.03
2022-12-09T11:58:24.045Z,33.03
2022-12-09T11:59:24.041Z,33.03
2022-12-09T12:00:24.022Z,33.03
2022-12-09T12:01:24.047Z,33.03
2022-12-09T12:02:24.058Z,33.03
2022-12-09T12:03:24.067Z,33.03
2022-12-09T12:04:23.977Z,33.03
2022-12-09T12:05:23.993Z,33.03
2022-12-09T12:06:23.964Z,33.03
2022-12-09T12:07:23.955Z,33.03
2022-12-09T12:08:24.035Z,33.03
2022-12-09T12:09:24.091Z,33.03
2022-12-09T12:10:23.912Z,33.03
2022-12-09T12:11:23.909Z,33.03
2022-12-09T12:12:23.894Z,33.03
2022-12-09T12:13:23.896Z,33.03
2022-12-09T12:14:23.877Z,33.03
2022-12-09T12:15:24.025Z,33.03
2022-12-09T12:16:23.850Z,33.03
2022-12-09T12:17:23.929Z,33.03
2022-12-09T12:18:23.834Z,33.03
2022-12-09T12:19:23.833Z,33.13
2022-12-09T12:20:23.810Z,33.03
2022-12-09T12:21:24.738Z,33.03
2022-12-09T12:22:23.799Z,33.03
2022-12-09T12:23:23.788Z,33.03
2022-12-09T12:24:23.792Z,33.03
2022-12-09T12:25:23.766Z,33.03
2022-12-09T12:26:23.749Z,33.03
2022-12-09T12:27:23.788Z,33.03
2022-12-09T12:28:23.739Z,32.93
2022-12-09T12:29:23.730Z,32.93
2022-12-09T12:30:23.706Z,32.93
2022-12-09T12:31:23.743Z,32.93
2022-12-09T12:32:23.684Z,33.03
2022-12-09T12:34:25.045Z,33.13
2022-12-09T12:35:23.668Z,33.13
2022-12-09T12:36:23.653Z,33.13
2022-12-09T12:37:23.642Z,33.13
2022-12-09T12:38:23.646Z,33.13
2022-12-09T12:39:23.754Z,33.13
2022-12-09T12:40:27.015Z,33.13
2022-12-09T12:41:23.605Z,33.13
2022-12-09T12:42:23.592Z,33.23
2022-12-09T12:43:23.583Z,33.23
2022-12-09T12:44:23.567Z,33.23
2022-12-09T12:45:23.708Z,33.23
2022-12-09T12:46:23.637Z,33.23
2022-12-09T12:47:23.541Z,33.23
2022-12-09T12:48:23.575Z,33.23
2022-12-09T12:49:23.522Z,33.23
2022-12-09T12:50:23.503Z,33.23
2022-12-09T12:51:23.543Z,33.23
2022-12-09T12:52:54.440Z,33.25
2022-12-09T12:53:23.487Z,33.25